sensor_id;sensor_type;location;lat;lon;timestamp;temperature;humidity
9446;DHT22;4761;49.490;10.908;2024-01-30T00:01:02;15.60;36.60
9446;DHT22;4761;49.490;10.908;2024-01-30T00:03:28;15.60;36.60
9446;DHT22;4761;49.490;10.908;2024-01-30T00:05:55;15.60;36.70
9446;DHT22;4761;49.490;10.908;2024-01-30T00:08:20;15.60;36.60
9446;DHT22;4761;49.490;10.908;2024-01-30T00:10:46;15.60;36.60
9446;DHT22;4761;49.490;10.908;2024-01-30T00:13:11;15.60;36.70
9446;DHT22;4761;49.490;10.908;2024-01-30T00:15:39;15.70;36.70
9446;DHT22;4761;49.490;10.908;2024-01-30T00:18:04;15.60;36.60
9446;DHT22;4761;49.490;10.908;2024-01-30T00:20:30;15.60;36.60
9446;DHT22;4761;49.490;10.908;2024-01-30T00:22:55;15.60;36.60
9446;DHT22;4761;49.490;10.908;2024-01-30T00:25:21;15.60;36.70
9446;DHT22;4761;49.490;10.908;2024-01-30T00:27:46;15.60;36.60
9446;DHT22;4761;49.490;10.908;2024-01-30T00:30:12;15.60;36.70
9446;DHT22;4761;49.490;10.908;2024-01-30T00:32:38;15.60;36.60
9446;DHT22;4761;49.490;10.908;2024-01-30T00:35:04;15.60;36.70
9446;DHT22;4761;49.490;10.908;2024-01-30T00:37:29;15.60;36.70
9446;DHT22;4761;49.490;10.908;2024-01-30T00:39:56;15.60;36.80
9446;DHT22;4761;49.490;10.908;2024-01-30T00:42:22;15.60;36.70
9446;DHT22;4761;49.490;10.908;2024-01-30T00:44:49;15.60;36.60
9446;DHT22;4761;49.490;10.908;2024-01-30T00:47:14;15.60;36.60
9446;DHT22;4761;49.490;10.908;2024-01-30T00:49:40;15.60;36.60
9446;DHT22;4761;49.490;10.908;2024-01-30T00:52:06;15.70;36.70
9446;DHT22;4761;49.490;10.908;2024-01-30T00:54:31;15.70;36.70
9446;DHT22;4761;49.490;10.908;2024-01-30T00:56:57;15.70;36.60
9446;DHT22;4761;49.490;10.908;2024-01-30T00:59:22;15.70;36.40
9446;DHT22;4761;49.490;10.908;2024-01-30T01:01:48;15.70;36.20
9446;DHT22;4761;49.490;10.908;2024-01-30T01:04:13;15.70;36.20
9446;DHT22;4761;49.490;10.908;2024-01-30T01:06:39;15.70;36.40
9446;DHT22;4761;49.490;10.908;2024-01-30T01:09:07;15.70;36.40
9446;DHT22;4761;49.490;10.908;2024-01-30T01:11:33;15.70;36.60
9446;DHT22;4761;49.490;10.908;2024-01-30T01:13:58;15.70;36.50
9446;DHT22;4761;49.490;10.908;2024-01-30T01:16:24;15.70;36.60
9446;DHT22;4761;49.490;10.908;2024-01-30T01:18:49;15.70;36.70
9446;DHT22;4761;49.490;10.908;2024-01-30T01:21:15;15.70;36.60
9446;DHT22;4761;49.490;10.908;2024-01-30T01:23:40;15.70;36.60
9446;DHT22;4761;49.490;10.908;2024-01-30T01:26:07;15.70;36.50
9446;DHT22;4761;49.490;10.908;2024-01-30T01:28:35;15.70;36.50
9446;DHT22;4761;49.490;10.908;2024-01-30T01:31:00;15.70;36.60
9446;DHT22;4761;49.490;10.908;2024-01-30T01:33:31;15.70;36.50
9446;DHT22;4761;49.490;10.908;2024-01-30T01:35:58;15.70;36.50
9446;DHT22;4761;49.490;10.908;2024-01-30T01:38:24;15.70;36.50
9446;DHT22;4761;49.490;10.908;2024-01-30T01:40:49;15.70;36.50
9446;DHT22;4761;49.490;10.908;2024-01-30T01:43:15;15.70;36.30
9446;DHT22;4761;49.490;10.908;2024-01-30T01:45:40;15.70;36.50
9446;DHT22;4761;49.490;10.908;2024-01-30T01:48:06;15.70;36.50
9446;DHT22;4761;49.490;10.908;2024-01-30T01:50:33;15.70;36.50
9446;DHT22;4761;49.490;10.908;2024-01-30T01:52:59;15.60;36.50
9446;DHT22;4761;49.490;10.908;2024-01-30T01:55:25;15.60;36.40
9446;DHT22;4761;49.490;10.908;2024-01-30T01:57:53;15.60;36.40
9446;DHT22;4761;49.490;10.908;2024-01-30T02:00:18;15.60;36.30
9446;DHT22;4761;49.490;10.908;2024-01-30T02:02:45;15.70;36.20
9446;DHT22;4761;49.490;10.908;2024-01-30T02:05:12;15.70;36.30
9446;DHT22;4761;49.490;10.908;2024-01-30T02:07:37;15.60;36.20
9446;DHT22;4761;49.490;10.908;2024-01-30T02:10:04;15.70;36.40
9446;DHT22;4761;49.490;10.908;2024-01-30T02:12:30;15.60;36.10
9446;DHT22;4761;49.490;10.908;2024-01-30T02:14:55;15.70;36.10
9446;DHT22;4761;49.490;10.908;2024-01-30T02:17:21;15.70;36.40
9446;DHT22;4761;49.490;10.908;2024-01-30T02:19:48;15.60;36.40
9446;DHT22;4761;49.490;10.908;2024-01-30T02:22:14;15.60;36.20
9446;DHT22;4761;49.490;10.908;2024-01-30T02:24:40;15.70;36.20
9446;DHT22;4761;49.490;10.908;2024-01-30T02:27:05;15.70;36.20
9446;DHT22;4761;49.490;10.908;2024-01-30T02:29:31;15.60;36.20
9446;DHT22;4761;49.490;10.908;2024-01-30T02:31:56;15.60;36.10
9446;DHT22;4761;49.490;10.908;2024-01-30T02:34:22;15.60;36.10
9446;DHT22;4761;49.490;10.908;2024-01-30T02:36:47;15.60;36.10
9446;DHT22;4761;49.490;10.908;2024-01-30T02:39:13;15.60;36.10
9446;DHT22;4761;49.490;10.908;2024-01-30T02:41:38;15.60;36.00
9446;DHT22;4761;49.490;10.908;2024-01-30T02:44:04;15.70;36.00
9446;DHT22;4761;49.490;10.908;2024-01-30T02:46:29;15.60;36.00
9446;DHT22;4761;49.490;10.908;2024-01-30T02:48:55;15.60;35.80
9446;DHT22;4761;49.490;10.908;2024-01-30T02:51:21;15.70;36.10
9446;DHT22;4761;49.490;10.908;2024-01-30T02:53:46;15.60;35.80
9446;DHT22;4761;49.490;10.908;2024-01-30T02:56:11;15.60;35.80
9446;DHT22;4761;49.490;10.908;2024-01-30T02:58:39;15.60;35.80
9446;DHT22;4761;49.490;10.908;2024-01-30T03:01:05;15.60;35.90
9446;DHT22;4761;49.490;10.908;2024-01-30T03:03:30;15.60;35.80
9446;DHT22;4761;49.490;10.908;2024-01-30T03:05:56;15.60;35.70
9446;DHT22;4761;49.490;10.908;2024-01-30T03:08:21;15.60;36.00
9446;DHT22;4761;49.490;10.908;2024-01-30T03:10:47;15.60;36.00
9446;DHT22;4761;49.490;10.908;2024-01-30T03:13:12;15.60;35.80
9446;DHT22;4761;49.490;10.908;2024-01-30T03:15:38;15.60;35.70
9446;DHT22;4761;49.490;10.908;2024-01-30T03:18:04;15.60;35.80
9446;DHT22;4761;49.490;10.908;2024-01-30T03:20:29;15.60;35.80
9446;DHT22;4761;49.490;10.908;2024-01-30T03:22:55;15.60;35.60
9446;DHT22;4761;49.490;10.908;2024-01-30T03:25:21;15.60;36.30
9446;DHT22;4761;49.490;10.908;2024-01-30T03:27:47;15.60;35.60
9446;DHT22;4761;49.490;10.908;2024-01-30T03:30:12;15.60;35.50
9446;DHT22;4761;49.490;10.908;2024-01-30T03:32:38;15.60;35.70
9446;DHT22;4761;49.490;10.908;2024-01-30T03:35:04;15.60;35.80
9446;DHT22;4761;49.490;10.908;2024-01-30T03:37:29;15.60;35.60
9446;DHT22;4761;49.490;10.908;2024-01-30T03:39:55;15.60;35.50
9446;DHT22;4761;49.490;10.908;2024-01-30T03:42:21;15.60;35.60
9446;DHT22;4761;49.490;10.908;2024-01-30T03:44:47;15.60;35.70
9446;DHT22;4761;49.490;10.908;2024-01-30T03:47:13;15.60;35.40
9446;DHT22;4761;49.490;10.908;2024-01-30T03:49:39;15.60;35.50
9446;DHT22;4761;49.490;10.908;2024-01-30T03:52:05;15.60;35.50
9446;DHT22;4761;49.490;10.908;2024-01-30T03:54:31;15.60;35.50
9446;DHT22;4761;49.490;10.908;2024-01-30T03:56:56;15.60;35.40
9446;DHT22;4761;49.490;10.908;2024-01-30T03:59:22;15.60;35.40
9446;DHT22;4761;49.490;10.908;2024-01-30T04:01:50;15.60;35.50
9446;DHT22;4761;49.490;10.908;2024-01-30T04:04:17;15.60;35.50
9446;DHT22;4761;49.490;10.908;2024-01-30T04:06:42;15.60;35.60
9446;DHT22;4761;49.490;10.908;2024-01-30T04:09:08;15.60;35.60
9446;DHT22;4761;49.490;10.908;2024-01-30T04:11:33;15.60;35.60
9446;DHT22;4761;49.490;10.908;2024-01-30T04:13:59;15.60;35.70
9446;DHT22;4761;49.490;10.908;2024-01-30T04:16:25;15.60;35.50
9446;DHT22;4761;49.490;10.908;2024-01-30T04:18:51;15.60;35.70
9446;DHT22;4761;49.490;10.908;2024-01-30T04:21:16;15.50;35.50
9446;DHT22;4761;49.490;10.908;2024-01-30T04:23:42;15.60;35.50
9446;DHT22;4761;49.490;10.908;2024-01-30T04:26:08;15.60;35.50
9446;DHT22;4761;49.490;10.908;2024-01-30T04:28:33;15.60;35.30
9446;DHT22;4761;49.490;10.908;2024-01-30T04:30:59;15.60;35.50
9446;DHT22;4761;49.490;10.908;2024-01-30T04:33:24;15.60;35.50
9446;DHT22;4761;49.490;10.908;2024-01-30T04:35:50;15.60;35.60
9446;DHT22;4761;49.490;10.908;2024-01-30T04:38:15;15.60;35.50
9446;DHT22;4761;49.490;10.908;2024-01-30T04:40:41;15.60;35.40
9446;DHT22;4761;49.490;10.908;2024-01-30T04:43:06;15.60;35.50
9446;DHT22;4761;49.490;10.908;2024-01-30T04:45:32;15.60;35.30
9446;DHT22;4761;49.490;10.908;2024-01-30T04:47:57;15.60;35.50
9446;DHT22;4761;49.490;10.908;2024-01-30T04:50:23;15.60;35.60
9446;DHT22;4761;49.490;10.908;2024-01-30T04:52:49;15.60;35.50
9446;DHT22;4761;49.490;10.908;2024-01-30T04:55:14;15.60;35.40
9446;DHT22;4761;49.490;10.908;2024-01-30T04:57:40;15.60;35.70
9446;DHT22;4761;49.490;10.908;2024-01-30T05:00:06;15.60;35.60
9446;DHT22;4761;49.490;10.908;2024-01-30T05:02:32;15.60;35.40
9446;DHT22;4761;49.490;10.908;2024-01-30T05:04:57;15.60;35.30
9446;DHT22;4761;49.490;10.908;2024-01-30T05:07:24;15.60;35.50
9446;DHT22;4761;49.490;10.908;2024-01-30T05:09:50;15.60;35.60
9446;DHT22;4761;49.490;10.908;2024-01-30T05:12:16;15.60;35.50
9446;DHT22;4761;49.490;10.908;2024-01-30T05:14:41;15.60;35.50
9446;DHT22;4761;49.490;10.908;2024-01-30T05:17:07;15.60;35.50
9446;DHT22;4761;49.490;10.908;2024-01-30T05:19:34;15.60;35.50
9446;DHT22;4761;49.490;10.908;2024-01-30T05:22:00;15.60;35.50
9446;DHT22;4761;49.490;10.908;2024-01-30T05:24:25;15.60;35.50
9446;DHT22;4761;49.490;10.908;2024-01-30T05:26:51;15.60;35.50
9446;DHT22;4761;49.490;10.908;2024-01-30T05:29:17;15.60;35.50
9446;DHT22;4761;49.490;10.908;2024-01-30T05:31:42;15.60;35.50
9446;DHT22;4761;49.490;10.908;2024-01-30T05:34:08;15.60;35.40
9446;DHT22;4761;49.490;10.908;2024-01-30T05:36:34;15.60;35.50
9446;DHT22;4761;49.490;10.908;2024-01-30T05:39:00;15.60;35.50
9446;DHT22;4761;49.490;10.908;2024-01-30T05:41:25;15.60;35.40
9446;DHT22;4761;49.490;10.908;2024-01-30T05:43:54;15.60;35.40
9446;DHT22;4761;49.490;10.908;2024-01-30T05:46:20;15.60;35.50
9446;DHT22;4761;49.490;10.908;2024-01-30T05:48:45;15.60;35.60
9446;DHT22;4761;49.490;10.908;2024-01-30T05:51:11;15.60;35.40
9446;DHT22;4761;49.490;10.908;2024-01-30T05:53:36;15.60;35.40
9446;DHT22;4761;49.490;10.908;2024-01-30T05:56:02;15.60;35.40
9446;DHT22;4761;49.490;10.908;2024-01-30T05:58:28;15.60;35.20
9446;DHT22;4761;49.490;10.908;2024-01-30T06:00:54;15.60;35.40
9446;DHT22;4761;49.490;10.908;2024-01-30T06:03:19;15.60;35.40
9446;DHT22;4761;49.490;10.908;2024-01-30T06:05:45;15.60;35.40
9446;DHT22;4761;49.490;10.908;2024-01-30T06:08:10;15.60;35.40
9446;DHT22;4761;49.490;10.908;2024-01-30T06:10:36;15.60;35.40
9446;DHT22;4761;49.490;10.908;2024-01-30T06:13:01;15.60;35.50
9446;DHT22;4761;49.490;10.908;2024-01-30T06:15:27;15.60;35.50
9446;DHT22;4761;49.490;10.908;2024-01-30T06:17:55;15.70;35.50
9446;DHT22;4761;49.490;10.908;2024-01-30T06:20:20;15.70;35.50
9446;DHT22;4761;49.490;10.908;2024-01-30T06:22:46;15.60;35.40
9446;DHT22;4761;49.490;10.908;2024-01-30T06:25:11;15.60;35.40
9446;DHT22;4761;49.490;10.908;2024-01-30T06:27:37;15.60;35.40
9446;DHT22;4761;49.490;10.908;2024-01-30T06:30:04;15.70;35.60
9446;DHT22;4761;49.490;10.908;2024-01-30T06:32:30;15.60;35.40
9446;DHT22;4761;49.490;10.908;2024-01-30T06:35:02;15.60;35.40
9446;DHT22;4761;49.490;10.908;2024-01-30T06:37:28;15.60;35.50
9446;DHT22;4761;49.490;10.908;2024-01-30T06:39:53;15.60;35.30
9446;DHT22;4761;49.490;10.908;2024-01-30T06:42:19;15.60;35.60
9446;DHT22;4761;49.490;10.908;2024-01-30T06:44:45;15.60;35.50
9446;DHT22;4761;49.490;10.908;2024-01-30T06:47:10;15.60;35.50
9446;DHT22;4761;49.490;10.908;2024-01-30T06:49:36;15.60;35.50
9446;DHT22;4761;49.490;10.908;2024-01-30T06:52:08;15.60;35.60
9446;DHT22;4761;49.490;10.908;2024-01-30T06:54:33;15.60;35.60
9446;DHT22;4761;49.490;10.908;2024-01-30T06:56:59;15.60;35.70
9446;DHT22;4761;49.490;10.908;2024-01-30T06:59:25;15.60;35.70
9446;DHT22;4761;49.490;10.908;2024-01-30T07:01:51;15.60;35.50
9446;DHT22;4761;49.490;10.908;2024-01-30T07:04:16;15.60;35.60
9446;DHT22;4761;49.490;10.908;2024-01-30T07:06:43;15.60;35.60
9446;DHT22;4761;49.490;10.908;2024-01-30T07:09:09;15.60;35.70
9446;DHT22;4761;49.490;10.908;2024-01-30T07:11:34;15.60;35.70
9446;DHT22;4761;49.490;10.908;2024-01-30T07:14:00;15.60;35.80
9446;DHT22;4761;49.490;10.908;2024-01-30T07:16:29;15.60;35.90
9446;DHT22;4761;49.490;10.908;2024-01-30T07:18:54;15.60;35.90
9446;DHT22;4761;49.490;10.908;2024-01-30T07:21:20;15.60;35.90
9446;DHT22;4761;49.490;10.908;2024-01-30T07:23:47;15.60;35.90
9446;DHT22;4761;49.490;10.908;2024-01-30T07:26:12;15.60;36.00
9446;DHT22;4761;49.490;10.908;2024-01-30T07:28:38;15.60;36.10
9446;DHT22;4761;49.490;10.908;2024-01-30T07:31:03;15.60;36.10
9446;DHT22;4761;49.490;10.908;2024-01-30T07:33:29;15.60;36.00
9446;DHT22;4761;49.490;10.908;2024-01-30T07:35:54;15.60;36.10
9446;DHT22;4761;49.490;10.908;2024-01-30T07:38:20;15.60;36.20
9446;DHT22;4761;49.490;10.908;2024-01-30T07:40:46;15.60;36.20
9446;DHT22;4761;49.490;10.908;2024-01-30T07:43:11;15.60;36.20
9446;DHT22;4761;49.490;10.908;2024-01-30T07:45:37;15.60;36.10
9446;DHT22;4761;49.490;10.908;2024-01-30T07:48:05;15.60;36.10
9446;DHT22;4761;49.490;10.908;2024-01-30T07:50:30;15.60;36.20
9446;DHT22;4761;49.490;10.908;2024-01-30T07:52:56;15.60;36.20
9446;DHT22;4761;49.490;10.908;2024-01-30T07:55:22;15.60;36.30
9446;DHT22;4761;49.490;10.908;2024-01-30T07:57:54;15.60;36.20
9446;DHT22;4761;49.490;10.908;2024-01-30T08:00:21;15.60;36.20
9446;DHT22;4761;49.490;10.908;2024-01-30T08:02:46;15.60;36.20
9446;DHT22;4761;49.490;10.908;2024-01-30T08:05:12;15.60;36.20
9446;DHT22;4761;49.490;10.908;2024-01-30T08:07:39;15.60;36.30
9446;DHT22;4761;49.490;10.908;2024-01-30T08:10:05;15.60;36.20
9446;DHT22;4761;49.490;10.908;2024-01-30T08:12:31;15.60;36.20
9446;DHT22;4761;49.490;10.908;2024-01-30T08:14:56;15.60;36.20
9446;DHT22;4761;49.490;10.908;2024-01-30T08:17:22;15.60;36.20
9446;DHT22;4761;49.490;10.908;2024-01-30T08:19:47;15.60;36.20
9446;DHT22;4761;49.490;10.908;2024-01-30T08:22:13;15.60;36.20
9446;DHT22;4761;49.490;10.908;2024-01-30T08:24:40;15.60;36.20
9446;DHT22;4761;49.490;10.908;2024-01-30T08:27:06;15.60;36.20
9446;DHT22;4761;49.490;10.908;2024-01-30T08:29:35;15.60;36.20
9446;DHT22;4761;49.490;10.908;2024-01-30T08:32:00;15.60;36.30
9446;DHT22;4761;49.490;10.908;2024-01-30T08:34:26;15.60;36.40
9446;DHT22;4761;49.490;10.908;2024-01-30T08:36:51;15.60;36.40
9446;DHT22;4761;49.490;10.908;2024-01-30T08:39:17;15.60;36.40
9446;DHT22;4761;49.490;10.908;2024-01-30T08:41:42;15.60;36.40
9446;DHT22;4761;49.490;10.908;2024-01-30T08:44:08;15.60;36.40
9446;DHT22;4761;49.490;10.908;2024-01-30T08:46:33;15.60;36.50
9446;DHT22;4761;49.490;10.908;2024-01-30T08:48:59;15.60;36.50
9446;DHT22;4761;49.490;10.908;2024-01-30T08:51:24;15.60;36.40
9446;DHT22;4761;49.490;10.908;2024-01-30T08:53:50;15.60;36.50
9446;DHT22;4761;49.490;10.908;2024-01-30T08:56:18;15.60;36.50
9446;DHT22;4761;49.490;10.908;2024-01-30T08:58:43;15.60;36.50
9446;DHT22;4761;49.490;10.908;2024-01-30T09:01:09;15.60;37.20
9446;DHT22;4761;49.490;10.908;2024-01-30T09:03:34;15.60;36.60
9446;DHT22;4761;49.490;10.908;2024-01-30T09:06:00;15.60;36.60
9446;DHT22;4761;49.490;10.908;2024-01-30T09:08:25;15.60;36.60
9446;DHT22;4761;49.490;10.908;2024-01-30T09:10:51;15.60;36.70
9446;DHT22;4761;49.490;10.908;2024-01-30T09:13:16;15.60;37.30
9446;DHT22;4761;49.490;10.908;2024-01-30T09:15:42;15.60;36.70
9446;DHT22;4761;49.490;10.908;2024-01-30T09:18:07;15.60;36.70
9446;DHT22;4761;49.490;10.908;2024-01-30T09:20:33;15.60;36.80
9446;DHT22;4761;49.490;10.908;2024-01-30T09:22:58;15.60;36.80
9446;DHT22;4761;49.490;10.908;2024-01-30T09:25:24;15.60;36.80
9446;DHT22;4761;49.490;10.908;2024-01-30T09:27:49;15.60;36.80
9446;DHT22;4761;49.490;10.908;2024-01-30T09:30:15;15.60;36.90
9446;DHT22;4761;49.490;10.908;2024-01-30T09:32:41;15.60;36.90
9446;DHT22;4761;49.490;10.908;2024-01-30T09:35:07;15.60;36.90
9446;DHT22;4761;49.490;10.908;2024-01-30T09:37:32;15.60;36.90
9446;DHT22;4761;49.490;10.908;2024-01-30T09:39:58;15.60;36.90
9446;DHT22;4761;49.490;10.908;2024-01-30T09:42:34;15.60;37.00
9446;DHT22;4761;49.490;10.908;2024-01-30T09:45:03;15.60;37.10
9446;DHT22;4761;49.490;10.908;2024-01-30T09:47:40;15.60;37.10
9446;DHT22;4761;49.490;10.908;2024-01-30T09:50:07;15.60;37.10
9446;DHT22;4761;49.490;10.908;2024-01-30T09:52:33;15.60;37.10
9446;DHT22;4761;49.490;10.908;2024-01-30T09:55:00;15.60;37.10
9446;DHT22;4761;49.490;10.908;2024-01-30T09:57:25;15.60;37.10
9446;DHT22;4761;49.490;10.908;2024-01-30T09:59:51;15.60;37.10
9446;DHT22;4761;49.490;10.908;2024-01-30T10:02:19;15.60;37.10
9446;DHT22;4761;49.490;10.908;2024-01-30T10:04:48;15.60;37.10
9446;DHT22;4761;49.490;10.908;2024-01-30T10:07:14;15.60;37.20
9446;DHT22;4761;49.490;10.908;2024-01-30T10:09:40;15.60;37.20
9446;DHT22;4761;49.490;10.908;2024-01-30T10:12:06;15.60;37.20
9446;DHT22;4761;49.490;10.908;2024-01-30T10:14:32;15.60;37.20
9446;DHT22;4761;49.490;10.908;2024-01-30T10:16:58;15.70;37.30
9446;DHT22;4761;49.490;10.908;2024-01-30T10:19:24;15.70;37.30
9446;DHT22;4761;49.490;10.908;2024-01-30T10:21:50;15.60;37.20
9446;DHT22;4761;49.490;10.908;2024-01-30T10:24:15;15.70;37.40
9446;DHT22;4761;49.490;10.908;2024-01-30T10:26:43;15.60;37.30
9446;DHT22;4761;49.490;10.908;2024-01-30T10:29:09;15.60;37.40
9446;DHT22;4761;49.490;10.908;2024-01-30T10:31:35;15.60;37.40
9446;DHT22;4761;49.490;10.908;2024-01-30T10:34:00;15.60;37.40
9446;DHT22;4761;49.490;10.908;2024-01-30T10:36:28;15.60;37.40
9446;DHT22;4761;49.490;10.908;2024-01-30T10:38:56;15.70;37.50
9446;DHT22;4761;49.490;10.908;2024-01-30T10:41:26;15.60;37.50
9446;DHT22;4761;49.490;10.908;2024-01-30T10:44:19;15.60;37.50
9446;DHT22;4761;49.490;10.908;2024-01-30T10:46:46;15.70;37.60
9446;DHT22;4761;49.490;10.908;2024-01-30T10:49:14;15.70;37.50
9446;DHT22;4761;49.490;10.908;2024-01-30T10:51:41;15.70;37.50
9446;DHT22;4761;49.490;10.908;2024-01-30T10:54:08;15.70;37.60
9446;DHT22;4761;49.490;10.908;2024-01-30T10:56:35;15.70;37.70
9446;DHT22;4761;49.490;10.908;2024-01-30T10:59:01;15.60;37.80
9446;DHT22;4761;49.490;10.908;2024-01-30T11:01:27;15.60;38.00
9446;DHT22;4761;49.490;10.908;2024-01-30T11:03:54;15.60;38.00
9446;DHT22;4761;49.490;10.908;2024-01-30T11:06:25;15.60;38.00
9446;DHT22;4761;49.490;10.908;2024-01-30T11:09:01;15.70;38.10
9446;DHT22;4761;49.490;10.908;2024-01-30T11:11:29;15.70;38.10
9446;DHT22;4761;49.490;10.908;2024-01-30T11:13:54;15.70;38.10
9446;DHT22;4761;49.490;10.908;2024-01-30T11:16:20;15.60;38.00
9446;DHT22;4761;49.490;10.908;2024-01-30T11:18:50;15.60;38.00
9446;DHT22;4761;49.490;10.908;2024-01-30T11:21:17;15.70;38.20
9446;DHT22;4761;49.490;10.908;2024-01-30T11:23:42;15.60;38.10
9446;DHT22;4761;49.490;10.908;2024-01-30T11:26:10;15.60;38.20
9446;DHT22;4761;49.490;10.908;2024-01-30T11:28:37;15.60;38.20
9446;DHT22;4761;49.490;10.908;2024-01-30T11:31:06;15.60;38.30
9446;DHT22;4761;49.490;10.908;2024-01-30T11:33:32;15.60;38.30
9446;DHT22;4761;49.490;10.908;2024-01-30T11:35:59;15.60;38.30
9446;DHT22;4761;49.490;10.908;2024-01-30T11:38:26;15.70;38.40
9446;DHT22;4761;49.490;10.908;2024-01-30T11:40:55;15.60;38.30
9446;DHT22;4761;49.490;10.908;2024-01-30T11:43:23;15.60;38.40
9446;DHT22;4761;49.490;10.908;2024-01-30T11:45:49;15.60;38.40
9446;DHT22;4761;49.490;10.908;2024-01-30T11:48:15;15.60;38.50
9446;DHT22;4761;49.490;10.908;2024-01-30T11:50:41;15.60;38.50
9446;DHT22;4761;49.490;10.908;2024-01-30T11:53:07;15.60;38.50
9446;DHT22;4761;49.490;10.908;2024-01-30T11:55:33;15.60;38.60
9446;DHT22;4761;49.490;10.908;2024-01-30T11:57:59;15.60;38.60
9446;DHT22;4761;49.490;10.908;2024-01-30T12:00:25;15.60;38.60
9446;DHT22;4761;49.490;10.908;2024-01-30T12:02:54;15.60;38.70
9446;DHT22;4761;49.490;10.908;2024-01-30T12:05:24;15.60;38.70
9446;DHT22;4761;49.490;10.908;2024-01-30T12:07:50;15.60;38.70
9446;DHT22;4761;49.490;10.908;2024-01-30T12:10:16;15.60;38.70
9446;DHT22;4761;49.490;10.908;2024-01-30T12:12:47;15.60;38.80
9446;DHT22;4761;49.490;10.908;2024-01-30T12:15:14;15.60;38.80
9446;DHT22;4761;49.490;10.908;2024-01-30T12:17:40;15.70;39.50
9446;DHT22;4761;49.490;10.908;2024-01-30T12:20:14;15.60;38.80
9446;DHT22;4761;49.490;10.908;2024-01-30T12:22:45;15.60;38.90
9446;DHT22;4761;49.490;10.908;2024-01-30T12:25:14;15.60;38.90
9446;DHT22;4761;49.490;10.908;2024-01-30T12:27:43;15.60;39.00
9446;DHT22;4761;49.490;10.908;2024-01-30T12:30:11;15.60;39.00
9446;DHT22;4761;49.490;10.908;2024-01-30T12:32:46;15.60;39.00
9446;DHT22;4761;49.490;10.908;2024-01-30T12:35:14;15.60;39.00
9446;DHT22;4761;49.490;10.908;2024-01-30T12:37:40;15.70;39.00
9446;DHT22;4761;49.490;10.908;2024-01-30T12:40:10;15.70;39.00
9446;DHT22;4761;49.490;10.908;2024-01-30T12:42:36;15.70;39.00
9446;DHT22;4761;49.490;10.908;2024-01-30T12:45:03;15.70;39.00
9446;DHT22;4761;49.490;10.908;2024-01-30T12:47:29;15.70;39.00
9446;DHT22;4761;49.490;10.908;2024-01-30T12:49:55;15.70;39.10
9446;DHT22;4761;49.490;10.908;2024-01-30T12:52:21;15.70;39.10
9446;DHT22;4761;49.490;10.908;2024-01-30T12:54:48;15.70;39.20
9446;DHT22;4761;49.490;10.908;2024-01-30T12:57:13;15.60;39.20
9446;DHT22;4761;49.490;10.908;2024-01-30T12:59:39;15.70;39.30
9446;DHT22;4761;49.490;10.908;2024-01-30T13:02:05;15.60;39.30
9446;DHT22;4761;49.490;10.908;2024-01-30T13:04:31;15.60;39.40
9446;DHT22;4761;49.490;10.908;2024-01-30T13:06:57;15.60;39.50
9446;DHT22;4761;49.490;10.908;2024-01-30T13:09:23;15.60;39.50
9446;DHT22;4761;49.490;10.908;2024-01-30T13:11:49;15.60;39.50
9446;DHT22;4761;49.490;10.908;2024-01-30T13:14:15;15.60;39.50
9446;DHT22;4761;49.490;10.908;2024-01-30T13:16:40;15.70;39.50
9446;DHT22;4761;49.490;10.908;2024-01-30T13:19:06;15.60;39.50
9446;DHT22;4761;49.490;10.908;2024-01-30T13:21:31;15.70;39.50
9446;DHT22;4761;49.490;10.908;2024-01-30T13:23:57;15.70;39.60
9446;DHT22;4761;49.490;10.908;2024-01-30T13:26:23;15.70;39.60
9446;DHT22;4761;49.490;10.908;2024-01-30T13:28:48;15.70;39.60
9446;DHT22;4761;49.490;10.908;2024-01-30T13:31:14;15.70;39.70
9446;DHT22;4761;49.490;10.908;2024-01-30T13:33:40;15.70;39.70
9446;DHT22;4761;49.490;10.908;2024-01-30T13:36:07;15.60;39.70
9446;DHT22;4761;49.490;10.908;2024-01-30T13:38:33;15.60;39.80
9446;DHT22;4761;49.490;10.908;2024-01-30T13:40:59;15.70;39.90
9446;DHT22;4761;49.490;10.908;2024-01-30T13:43:24;15.70;39.90
9446;DHT22;4761;49.490;10.908;2024-01-30T13:45:50;15.70;39.90
9446;DHT22;4761;49.490;10.908;2024-01-30T13:48:15;15.70;39.90
9446;DHT22;4761;49.490;10.908;2024-01-30T13:50:41;15.70;40.00
9446;DHT22;4761;49.490;10.908;2024-01-30T13:53:07;15.70;40.00
9446;DHT22;4761;49.490;10.908;2024-01-30T13:55:32;15.70;40.10
9446;DHT22;4761;49.490;10.908;2024-01-30T13:57:58;15.70;40.10
9446;DHT22;4761;49.490;10.908;2024-01-30T14:00:23;15.70;40.10
9446;DHT22;4761;49.490;10.908;2024-01-30T14:02:51;15.70;40.20
9446;DHT22;4761;49.490;10.908;2024-01-30T14:05:16;15.70;40.20
9446;DHT22;4761;49.490;10.908;2024-01-30T14:07:43;15.70;40.20
9446;DHT22;4761;49.490;10.908;2024-01-30T14:10:10;15.70;40.20
9446;DHT22;4761;49.490;10.908;2024-01-30T14:12:36;15.70;40.20
9446;DHT22;4761;49.490;10.908;2024-01-30T14:15:02;15.70;40.20
9446;DHT22;4761;49.490;10.908;2024-01-30T14:17:27;15.70;40.20
9446;DHT22;4761;49.490;10.908;2024-01-30T14:19:53;15.70;40.20
9446;DHT22;4761;49.490;10.908;2024-01-30T14:22:18;15.70;40.20
9446;DHT22;4761;49.490;10.908;2024-01-30T14:24:44;15.70;40.30
9446;DHT22;4761;49.490;10.908;2024-01-30T14:27:10;15.70;40.40
9446;DHT22;4761;49.490;10.908;2024-01-30T14:29:36;15.70;40.40
9446;DHT22;4761;49.490;10.908;2024-01-30T14:32:01;15.70;40.50
9446;DHT22;4761;49.490;10.908;2024-01-30T14:34:27;15.70;40.50
9446;DHT22;4761;49.490;10.908;2024-01-30T14:36:52;15.70;40.60
9446;DHT22;4761;49.490;10.908;2024-01-30T14:39:18;15.70;40.60
9446;DHT22;4761;49.490;10.908;2024-01-30T14:41:44;15.70;40.60
9446;DHT22;4761;49.490;10.908;2024-01-30T14:44:09;15.70;40.60
9446;DHT22;4761;49.490;10.908;2024-01-30T14:46:36;15.70;40.60
9446;DHT22;4761;49.490;10.908;2024-01-30T14:49:02;15.70;40.50
9446;DHT22;4761;49.490;10.908;2024-01-30T14:51:30;15.70;40.50
9446;DHT22;4761;49.490;10.908;2024-01-30T14:53:56;15.70;40.50
9446;DHT22;4761;49.490;10.908;2024-01-30T14:56:22;15.70;40.60
9446;DHT22;4761;49.490;10.908;2024-01-30T14:58:48;15.70;40.60
9446;DHT22;4761;49.490;10.908;2024-01-30T15:01:13;15.70;40.70
9446;DHT22;4761;49.490;10.908;2024-01-30T15:03:39;15.70;40.60
9446;DHT22;4761;49.490;10.908;2024-01-30T15:06:05;15.70;40.70
9446;DHT22;4761;49.490;10.908;2024-01-30T15:08:31;15.70;40.70
9446;DHT22;4761;49.490;10.908;2024-01-30T15:10:57;15.70;40.70
9446;DHT22;4761;49.490;10.908;2024-01-30T15:13:23;15.70;40.70
9446;DHT22;4761;49.490;10.908;2024-01-30T15:15:49;15.70;40.80
9446;DHT22;4761;49.490;10.908;2024-01-30T15:18:14;15.70;40.80
9446;DHT22;4761;49.490;10.908;2024-01-30T15:20:40;15.70;40.80
9446;DHT22;4761;49.490;10.908;2024-01-30T15:23:05;15.70;40.90
9446;DHT22;4761;49.490;10.908;2024-01-30T15:25:31;15.70;41.00
9446;DHT22;4761;49.490;10.908;2024-01-30T15:27:56;15.70;41.00
9446;DHT22;4761;49.490;10.908;2024-01-30T15:30:22;15.70;41.00
9446;DHT22;4761;49.490;10.908;2024-01-30T15:32:48;15.70;41.10
9446;DHT22;4761;49.490;10.908;2024-01-30T15:35:14;15.70;41.20
9446;DHT22;4761;49.490;10.908;2024-01-30T15:37:39;15.70;41.20